Terminal Aerodrome Forecast
Issued by NWS

Home | Current Version | Previous Version | Text Only | Print | Product List | Glossary On
Versions: 1 2 3 4 5 6 7 8 9 10 11 12 13 14
623
FTUS45 KABQ 280536
TAFFMN
TAF
KFMN 280536Z 2806/2906 31013KT P6SM BKN090
     FM281500 30011KT P6SM VCSH SCT040 BKN080
     FM282000 31012G22KT P6SM BKN100
     FM290130 33009KT P6SM SCT100=

USA.gov is the U.S. government's official web portal to all federal, state and local government web resources and services.